Elmira Corning Regional Airport Elmira,Corning US
ICAO: KELM
IATA: ELM
Category: Medium
Scheduled Services: Yes

Elevation: 954 ft
TransAlt. 18000 ft.

Airport Communications:
APP/DEP:119.45
ATIS:125.475
CLNC DEL:121.9
CTAF:122.4
GND/CLNC DEL:121.9
BUFFALO RDO:122.2
TWR:121.1
UNICOM:122.95

KELM Zoom In..

If you have problems with the map follow the link
https://www.worldairports.se/pages/airport.php?
ICAO=KELM

Runways:

(A) RW 05 length 2017 ft width 150 ft
---- / hdg 62

(B) RW 06 length 8001 ft width 150 ft
ILS 109.10 / hdg 62

(C) RW 10 length 5404 ft width 150 ft
---- / hdg 101

(D) RW 23 length 2017 ft width 150 ft
---- / hdg 242

(E) RW 24 length 8001 ft width 150 ft
ILS 109.10 / hdg 242

(F) RW 28 length 5404 ft width 150 ft
---- / hdg 281

Location; KELM
Day. 19 / Time. 13.27 Zulu
* Altimeter: 30.11
* Temperature: 02° c. 35.6°f.
* Wind from: 000° Speed 00 kn.
Dewpoint: 01° c.
Visibility: 1 m.
Clouds: Scattered 400 ft.
Clouds: Overcast 3100 ft.
Conditions: Mist.

KELM 191327Z 00000KT 1 3/4SM BR SCT004 OVC031 02/01 A3011 RMK AO2 T00170006


Wind - Calm.

 
 
jpsmedia.com for Web Design worldairports.se 2018   terms of use